createdAt,value
2022-08-03T00:00:34.086Z,21.31
2022-08-03T00:03:07.400Z,21.26
2022-08-03T00:05:34.639Z,21.21
2022-08-03T00:08:01.694Z,21.14
2022-08-03T00:10:30.219Z,21.18
2022-08-03T00:12:57.079Z,21.18
2022-08-03T00:15:23.904Z,21.18
2022-08-03T00:17:54.619Z,21.20
2022-08-03T00:20:22.250Z,21.19
2022-08-03T00:22:49.927Z,21.18
2022-08-03T00:25:17.505Z,21.11
2022-08-03T00:27:44.515Z,21.02
2022-08-03T00:30:11.839Z,21.00
2022-08-03T00:32:44.347Z,20.97
2022-08-03T00:35:34.408Z,20.92
2022-08-03T00:38:00.498Z,20.96
2022-08-03T00:40:28.224Z,20.90
2022-08-03T00:43:01.233Z,20.92
2022-08-03T00:45:31.270Z,20.88
2022-08-03T00:47:59.224Z,20.93
2022-08-03T00:50:28.916Z,20.91
2022-08-03T00:52:59.294Z,20.80
2022-08-03T00:55:26.821Z,20.80
2022-08-03T00:57:54.194Z,20.83
2022-08-03T01:00:23.624Z,20.78
2022-08-03T01:02:51.648Z,20.68
2022-08-03T01:05:19.429Z,20.62
2022-08-03T01:08:07.830Z,20.77
2022-08-03T01:10:53.683Z,20.72
2022-08-03T01:14:01.226Z,20.71
2022-08-03T01:16:35.978Z,20.73
2022-08-03T01:19:29.376Z,20.66
2022-08-03T01:21:58.710Z,20.52
2022-08-03T01:24:45.332Z,20.51
2022-08-03T01:27:35.490Z,20.54
2022-08-03T01:30:08.491Z,20.45
2022-08-03T01:33:02.785Z,20.46
2022-08-03T01:35:43.036Z,20.34
2022-08-03T01:38:18.284Z,20.33
2022-08-03T01:40:47.020Z,20.33
2022-08-03T01:44:27.759Z,20.29
2022-08-03T01:46:07.547Z,20.24
2022-08-03T01:48:38.112Z,20.21
2022-08-03T01:51:07.049Z,20.25
2022-08-03T01:53:35.064Z,20.29
2022-08-03T01:56:04.010Z,20.27
2022-08-03T01:58:32.356Z,20.26
2022-08-03T02:01:01.828Z,20.29
2022-08-03T02:03:31.779Z,20.25
2022-08-03T02:06:40.954Z,20.18
2022-08-03T02:08:48.858Z,20.10
2022-08-03T02:11:16.228Z,20.13
2022-08-03T02:13:45.809Z,20.05
2022-08-03T02:16:14.341Z,20.11
2022-08-03T02:18:42.521Z,20.02
2022-08-03T02:21:11.936Z,19.92
2022-08-03T02:23:59.045Z,19.95
2022-08-03T02:26:29.161Z,19.87
2022-08-03T02:28:58.773Z,19.86
2022-08-03T02:31:31.086Z,19.87
2022-08-03T02:34:03.652Z,19.85
2022-08-03T02:36:34.947Z,19.87
2022-08-03T02:39:03.735Z,19.75
2022-08-03T02:41:42.180Z,19.91
2022-08-03T02:44:11.299Z,19.70
2022-08-03T02:46:42.970Z,19.72
2022-08-03T02:49:49.500Z,19.74
2022-08-03T02:51:59.659Z,19.62
2022-08-03T02:54:27.896Z,19.60
2022-08-03T02:56:58.955Z,19.55
2022-08-03T02:59:28.326Z,19.63
2022-08-03T19:30:39.036Z,26.59
2022-08-03T19:33:09.303Z,26.55
2022-08-03T19:35:51.738Z,26.56
2022-08-03T19:38:29.093Z,26.47
2022-08-03T19:41:00.792Z,26.54
2022-08-03T19:43:52.894Z,26.64
2022-08-03T19:46:30.468Z,26.57
2022-08-03T19:49:15.157Z,26.44
2022-08-03T19:52:01.827Z,26.35
2022-08-03T19:54:52.996Z,26.24
2022-08-03T19:57:24.146Z,26.22
2022-08-03T19:59:53.217Z,26.25
2022-08-03T20:02:26.579Z,26.15
2022-08-03T20:04:56.986Z,26.10
2022-08-03T20:07:25.488Z,25.98
2022-08-03T20:09:54.505Z,25.84
2022-08-03T20:12:27.713Z,25.82
2022-08-03T20:14:57.562Z,25.87
2022-08-03T20:17:54.585Z,25.76
2022-08-03T20:20:12.590Z,25.71
2022-08-03T20:22:46.215Z,25.67
2022-08-03T20:25:20.915Z,25.63
2022-08-03T20:28:07.093Z,25.59
2022-08-03T20:30:43.608Z,25.55
2022-08-03T20:33:11.082Z,25.50
2022-08-03T20:35:38.050Z,25.46
2022-08-03T20:38:09.354Z,25.41
2022-08-03T20:40:36.561Z,25.41
2022-08-03T20:43:04.877Z,25.42
2022-08-03T20:46:00.360Z,25.38
2022-08-03T20:48:22.209Z,25.32
2022-08-03T20:50:49.349Z,25.33
2022-08-03T20:53:31.162Z,25.32
2022-08-03T20:56:04.713Z,25.29
2022-08-03T20:58:32.665Z,25.23
2022-08-03T21:01:01.037Z,25.23
2022-08-03T21:03:31.865Z,25.06
2022-08-03T21:06:12.055Z,25.05
2022-08-03T21:08:47.009Z,24.87
2022-08-03T21:11:20.178Z,24.80
2022-08-03T21:13:58.793Z,24.69
2022-08-03T21:16:29.004Z,24.61
2022-08-03T21:18:59.669Z,24.67
2022-08-03T21:21:30.692Z,24.61
2022-08-03T21:23:59.658Z,24.62
2022-08-03T21:26:27.508Z,24.54
2022-08-03T21:28:56.352Z,24.47
2022-08-03T21:31:26.276Z,24.45
2022-08-03T21:33:56.469Z,24.50
2022-08-03T21:36:25.777Z,24.40
2022-08-03T21:38:55.774Z,24.27
2022-08-03T21:41:24.001Z,24.19
2022-08-03T21:43:50.759Z,24.12
2022-08-03T21:46:19.797Z,24.04
2022-08-03T21:48:54.459Z,24.03
2022-08-03T21:51:25.523Z,23.98
2022-08-03T21:54:03.458Z,23.95
2022-08-03T21:56:41.735Z,23.75
2022-08-03T21:59:15.847Z,23.75
2022-08-03T22:01:49.062Z,23.70
2022-08-03T22:04:50.626Z,23.56
2022-08-03T22:07:08.467Z,23.44
2022-08-03T22:09:36.401Z,23.37
2022-08-03T22:12:03.966Z,23.36
2022-08-03T22:14:37.387Z,23.33
2022-08-03T22:17:06.339Z,23.34
2022-08-03T22:19:34.891Z,23.23
2022-08-03T22:22:06.033Z,23.14
2022-08-03T22:24:36.068Z,23.34
2022-08-03T22:27:22.715Z,23.22
2022-08-03T22:29:51.011Z,23.25
2022-08-03T22:32:18.015Z,23.19
2022-08-03T22:34:47.388Z,23.06
2022-08-03T22:37:16.600Z,23.00
2022-08-03T22:39:45.252Z,22.93
2022-08-03T22:42:12.647Z,23.03
2022-08-03T22:44:40.334Z,22.95
2022-08-03T22:47:09.588Z,22.88
2022-08-03T22:49:38.052Z,22.86
2022-08-03T22:52:07.595Z,22.85
2022-08-03T22:54:35.565Z,22.87
2022-08-03T22:57:03.349Z,22.77
2022-08-03T22:59:39.853Z,22.83
2022-08-03T23:02:20.650Z,22.78
2022-08-03T23:04:57.697Z,22.71
2022-08-03T23:07:32.286Z,22.75
2022-08-03T23:10:01.703Z,22.68
2022-08-03T23:12:31.604Z,22.56
2022-08-03T23:15:02.423Z,22.48
2022-08-03T23:17:34.213Z,22.53
2022-08-03T23:20:26.367Z,22.55
2022-08-03T23:22:54.622Z,22.47
2022-08-03T23:25:22.089Z,22.42
2022-08-03T23:28:05.546Z,22.46
2022-08-03T23:30:37.226Z,22.44
2022-08-03T23:33:04.380Z,22.44
2022-08-03T23:36:29.421Z,22.39
2022-08-03T23:38:37.183Z,22.33
2022-08-03T23:41:04.891Z,22.29
2022-08-03T23:43:51.602Z,22.21
2022-08-03T23:46:22.717Z,22.23
2022-08-03T23:48:51.144Z,22.18
2022-08-03T23:51:43.132Z,22.16
2022-08-03T23:54:23.699Z,22.22
2022-08-03T23:57:20.585Z,22.21
